sensor_id;sensor_type;location;lat;lon;timestamp;pressure;altitude;pressure_sealevel;temperature;humidity
32320;BME280;19080;51.750;5.888;2024-02-26T00:00:30;99666.50;;;6.47;100.00
32320;BME280;19080;51.750;5.888;2024-02-26T00:02:57;99685.09;;;6.60;100.00
32320;BME280;19080;51.750;5.888;2024-02-26T00:05:24;99693.06;;;6.64;100.00
32320;BME280;19080;51.750;5.888;2024-02-26T00:07:50;99686.84;;;6.59;100.00
32320;BME280;19080;51.750;5.888;2024-02-26T00:10:17;99687.81;;;6.66;100.00
32320;BME280;19080;51.750;5.888;2024-02-26T00:12:44;99689.53;;;6.62;100.00
32320;BME280;19080;51.750;5.888;2024-02-26T00:15:10;99690.44;;;6.66;100.00
32320;BME280;19080;51.750;5.888;2024-02-26T00:17:37;99689.56;;;6.64;100.00
32320;BME280;19080;51.750;5.888;2024-02-26T00:20:05;99662.09;;;6.46;100.00
32320;BME280;19080;51.750;5.888;2024-02-26T00:22:35;99687.81;;;6.66;100.00
32320;BME280;19080;51.750;5.888;2024-02-26T00:25:03;99678.97;;;6.61;100.00
32320;BME280;19080;51.750;5.888;2024-02-26T00:27:30;99658.59;;;6.47;100.00
32320;BME280;19080;51.750;5.888;2024-02-26T00:29:57;99694.84;;;6.67;100.00
32320;BME280;19080;51.750;5.888;2024-02-26T00:32:23;99652.38;;;6.42;100.00
32320;BME280;19080;51.750;5.888;2024-02-26T00:34:50;99681.53;;;6.56;100.00
32320;BME280;19080;51.750;5.888;2024-02-26T00:37:17;99694.78;;;6.61;100.00
32320;BME280;19080;51.750;5.888;2024-02-26T00:39:44;99688.69;;;6.65;100.00
32320;BME280;19080;51.750;5.888;2024-02-26T00:42:11;99678.97;;;6.61;100.00
32320;BME280;19080;51.750;5.888;2024-02-26T00:44:37;99685.19;;;6.67;100.00
32320;BME280;19080;51.750;5.888;2024-02-26T00:47:04;99679.84;;;6.61;100.00
32320;BME280;19080;51.750;5.888;2024-02-26T00:49:31;99686.03;;;6.65;100.00
32320;BME280;19080;51.750;5.888;2024-02-26T00:51:58;99642.78;;;6.47;100.00
32320;BME280;19080;51.750;5.888;2024-02-26T00:54:25;99683.41;;;6.65;100.00
32320;BME280;19080;51.750;5.888;2024-02-26T00:56:52;99676.38;;;6.65;100.00
32320;BME280;19080;51.750;5.888;2024-02-26T00:59:18;99686.03;;;6.65;100.00
32320;BME280;19080;51.750;5.888;2024-02-26T01:01:45;99684.28;;;6.65;100.00
32320;BME280;19080;51.750;5.888;2024-02-26T01:04:11;99685.16;;;6.63;100.00
32320;BME280;19080;51.750;5.888;2024-02-26T01:06:38;99700.19;;;6.70;100.00
32320;BME280;19080;51.750;5.888;2024-02-26T01:09:05;99699.16;;;6.59;100.00
32320;BME280;19080;51.750;5.888;2024-02-26T01:11:32;99703.41;;;6.47;100.00
32320;BME280;19080;51.750;5.888;2024-02-26T01:13:58;99689.31;;;6.45;100.00
32320;BME280;19080;51.750;5.888;2024-02-26T01:16:25;99683.25;;;6.51;100.00
32320;BME280;19080;51.750;5.888;2024-02-26T01:18:52;99670.03;;;6.49;100.00
32320;BME280;19080;51.750;5.888;2024-02-26T01:21:18;99647.09;;;6.42;100.00
32320;BME280;19080;51.750;5.888;2024-02-26T01:23:45;99671.97;;;6.64;100.00
32320;BME280;19080;51.750;5.888;2024-02-26T01:26:12;99659.59;;;6.59;100.00
32320;BME280;19080;51.750;5.888;2024-02-26T01:28:38;99687.84;;;6.69;100.00
32320;BME280;19080;51.750;5.888;2024-02-26T01:31:05;99684.31;;;6.67;100.00
32320;BME280;19080;51.750;5.888;2024-02-26T01:33:34;99648.88;;;6.43;100.00
32320;BME280;19080;51.750;5.888;2024-02-26T01:36:01;99703.78;;;6.76;100.00
32320;BME280;19080;51.750;5.888;2024-02-26T01:38:28;99701.13;;;6.75;100.00
32320;BME280;19080;51.750;5.888;2024-02-26T01:40:55;99702.00;;;6.77;100.00
32320;BME280;19080;51.750;5.888;2024-02-26T01:43:22;99694.94;;;6.73;100.00
32320;BME280;19080;51.750;5.888;2024-02-26T01:45:48;99709.06;;;6.78;100.00
32320;BME280;19080;51.750;5.888;2024-02-26T01:48:15;99718.72;;;6.77;100.00
32320;BME280;19080;51.750;5.888;2024-02-26T01:50:42;99723.97;;;6.74;100.00
32320;BME280;19080;51.750;5.888;2024-02-26T01:53:09;99706.22;;;6.63;100.00
32320;BME280;19080;51.750;5.888;2024-02-26T01:55:36;99690.38;;;6.60;100.00
32320;BME280;19080;51.750;5.888;2024-02-26T01:58:06;99723.06;;;6.74;100.00
32320;BME280;19080;51.750;5.888;2024-02-26T02:00:33;99730.13;;;6.75;100.00
32320;BME280;19080;51.750;5.888;2024-02-26T02:03:02;99705.28;;;6.58;100.00
32320;BME280;19080;51.750;5.888;2024-02-26T02:05:30;99717.69;;;6.65;100.00
32320;BME280;19080;51.750;5.888;2024-02-26T02:07:57;99720.34;;;6.66;100.00
32320;BME280;19080;51.750;5.888;2024-02-26T02:10:26;99728.31;;;6.71;100.00
32320;BME280;19080;51.750;5.888;2024-02-26T02:12:53;99710.59;;;6.61;100.00
32320;BME280;19080;51.750;5.888;2024-02-26T02:15:19;99744.13;;;6.71;100.00
32320;BME280;19080;51.750;5.888;2024-02-26T02:17:47;99720.03;;;6.43;100.00
32320;BME280;19080;51.750;5.888;2024-02-26T02:20:18;99759.56;;;6.43;100.00
32320;BME280;19080;51.750;5.888;2024-02-26T02:22:45;99718.03;;;6.26;100.00
32320;BME280;19080;51.750;5.888;2024-02-26T02:25:12;99750.84;;;6.47;100.00
32320;BME280;19080;51.750;5.888;2024-02-26T02:27:40;99743.94;;;6.56;100.00
32320;BME280;19080;51.750;5.888;2024-02-26T02:30:08;99752.72;;;6.56;100.00
32320;BME280;19080;51.750;5.888;2024-02-26T02:32:37;99751.84;;;6.57;100.00
32320;BME280;19080;51.750;5.888;2024-02-26T02:35:06;99745.66;;;6.53;100.00
32320;BME280;19080;51.750;5.888;2024-02-26T02:37:33;99716.53;;;6.43;100.00
32320;BME280;19080;51.750;5.888;2024-02-26T02:40:00;99731.53;;;6.48;100.00
32320;BME280;19080;51.750;5.888;2024-02-26T02:42:26;99736.84;;;6.51;100.00
32320;BME280;19080;51.750;5.888;2024-02-26T02:44:53;99737.69;;;6.49;100.00
32320;BME280;19080;51.750;5.888;2024-02-26T02:47:20;99728.78;;;6.41;100.00
32320;BME280;19080;51.750;5.888;2024-02-26T02:49:47;99739.47;;;6.50;100.00
32320;BME280;19080;51.750;5.888;2024-02-26T02:52:13;99735.06;;;6.50;100.00
32320;BME280;19080;51.750;5.888;2024-02-26T02:54:40;99727.09;;;6.46;100.00
32320;BME280;19080;51.750;5.888;2024-02-26T02:57:08;99734.06;;;6.42;100.00
32320;BME280;19080;51.750;5.888;2024-02-26T02:59:36;99729.59;;;6.35;100.00
32320;BME280;19080;51.750;5.888;2024-02-26T03:02:03;99737.50;;;6.37;100.00
32320;BME280;19080;51.750;5.888;2024-02-26T03:04:29;99729.38;;;6.20;100.00
32320;BME280;19080;51.750;5.888;2024-02-26T03:06:56;99749.78;;;6.35;100.00
32320;BME280;19080;51.750;5.888;2024-02-26T03:09:24;99748.81;;;6.28;100.00
32320;BME280;19080;51.750;5.888;2024-02-26T03:11:51;99757.56;;;6.27;100.00
32320;BME280;19080;51.750;5.888;2024-02-26T03:14:18;99744.31;;;6.21;100.00
32320;BME280;19080;51.750;5.888;2024-02-26T03:16:44;99729.19;;;6.08;100.00
32320;BME280;19080;51.750;5.888;2024-02-26T03:19:14;99755.75;;;6.23;100.00
32320;BME280;19080;51.750;5.888;2024-02-26T03:21:42;99758.31;;;6.18;100.00
32320;BME280;19080;51.750;5.888;2024-02-26T03:24:08;99760.88;;;6.14;100.00
32320;BME280;19080;51.750;5.888;2024-02-26T03:26:38;99749.41;;;6.10;100.00
32320;BME280;19080;51.750;5.888;2024-02-26T03:29:05;99753.84;;;6.13;100.00
32320;BME280;19080;51.750;5.888;2024-02-26T03:31:32;99719.28;;;5.93;100.00
32320;BME280;19080;51.750;5.888;2024-02-26T03:33:59;99759.06;;;6.10;100.00
32320;BME280;19080;51.750;5.888;2024-02-26T03:36:26;99748.34;;;5.98;100.00
32320;BME280;19080;51.750;5.888;2024-02-26T03:38:53;99757.97;;;5.97;100.00
32320;BME280;19080;51.750;5.888;2024-02-26T03:41:19;99752.72;;;5.97;100.00
32320;BME280;19080;51.750;5.888;2024-02-26T03:43:46;99743.72;;;5.86;100.00
32320;BME280;19080;51.750;5.888;2024-02-26T03:46:13;99759.75;;;5.98;100.00
32320;BME280;19080;51.750;5.888;2024-02-26T03:48:41;99710.13;;;5.71;100.00
32320;BME280;19080;51.750;5.888;2024-02-26T03:51:08;99754.28;;;5.87;100.00
32320;BME280;19080;51.750;5.888;2024-02-26T03:53:36;99751.66;;;5.87;100.00
32320;BME280;19080;51.750;5.888;2024-02-26T03:56:04;99763.03;;;5.86;100.00
32320;BME280;19080;51.750;5.888;2024-02-26T03:58:31;99749.72;;;5.77;100.00
32320;BME280;19080;51.750;5.888;2024-02-26T04:00:59;99731.00;;;5.61;100.00
32320;BME280;19080;51.750;5.888;2024-02-26T04:03:26;99757.66;;;5.79;100.00
32320;BME280;19080;51.750;5.888;2024-02-26T04:05:53;99759.41;;;5.78;100.00
32320;BME280;19080;51.750;5.888;2024-02-26T04:08:19;99751.41;;;5.72;100.00
32320;BME280;19080;51.750;5.888;2024-02-26T04:10:46;99717.63;;;5.48;100.00
32320;BME280;19080;51.750;5.888;2024-02-26T04:13:13;99725.53;;;5.48;100.00
32320;BME280;19080;51.750;5.888;2024-02-26T04:15:40;99752.16;;;5.65;100.00
32320;BME280;19080;51.750;5.888;2024-02-26T04:18:06;99738.91;;;5.61;100.00
32320;BME280;19080;51.750;5.888;2024-02-26T04:20:33;99761.03;;;5.72;100.00
32320;BME280;19080;51.750;5.888;2024-02-26T04:23:00;99768.00;;;5.68;100.00
32320;BME280;19080;51.750;5.888;2024-02-26T04:25:27;99767.09;;;5.66;100.00
32320;BME280;19080;51.750;5.888;2024-02-26T04:27:55;99779.50;;;5.73;100.00
32320;BME280;19080;51.750;5.888;2024-02-26T04:30:21;99760.94;;;5.66;100.00
32320;BME280;19080;51.750;5.888;2024-02-26T04:32:48;99764.56;;;5.72;100.00
32320;BME280;19080;51.750;5.888;2024-02-26T04:35:15;99768.00;;;5.68;100.00
32320;BME280;19080;51.750;5.888;2024-02-26T04:37:41;99770.75;;;5.74;100.00
32320;BME280;19080;51.750;5.888;2024-02-26T04:40:09;99770.84;;;5.80;100.00
32320;BME280;19080;51.750;5.888;2024-02-26T04:42:36;99758.41;;;5.72;100.00
32320;BME280;19080;51.750;5.888;2024-02-26T04:45:03;99776.16;;;5.83;100.00
32320;BME280;19080;51.750;5.888;2024-02-26T04:47:29;99777.81;;;5.78;100.00
32320;BME280;19080;51.750;5.888;2024-02-26T04:49:56;99751.22;;;5.62;100.00
32320;BME280;19080;51.750;5.888;2024-02-26T04:52:23;99781.44;;;5.83;100.00
32320;BME280;19080;51.750;5.888;2024-02-26T04:54:51;99754.84;;;5.68;100.00
32320;BME280;19080;51.750;5.888;2024-02-26T04:57:18;99798.16;;;5.87;100.00
32320;BME280;19080;51.750;5.888;2024-02-26T04:59:45;99767.16;;;5.71;100.00
32320;BME280;19080;51.750;5.888;2024-02-26T05:02:13;99790.19;;;5.82;100.00
32320;BME280;19080;51.750;5.888;2024-02-26T05:04:40;99792.81;;;5.82;100.00
32320;BME280;19080;51.750;5.888;2024-02-26T05:07:06;99776.88;;;5.75;100.00
32320;BME280;19080;51.750;5.888;2024-02-26T05:09:35;99797.34;;;5.90;100.00
32320;BME280;19080;51.750;5.888;2024-02-26T05:12:01;99793.78;;;5.87;100.00
32320;BME280;19080;51.750;5.888;2024-02-26T05:14:28;99781.56;;;5.90;100.00
32320;BME280;19080;51.750;5.888;2024-02-26T05:16:55;99792.16;;;5.93;100.00
32320;BME280;19080;51.750;5.888;2024-02-26T05:19:22;99802.78;;;5.99;100.00
32320;BME280;19080;51.750;5.888;2024-02-26T05:21:49;99799.22;;;5.95;100.00
32320;BME280;19080;51.750;5.888;2024-02-26T05:24:16;99809.72;;;5.94;100.00
32320;BME280;19080;51.750;5.888;2024-02-26T05:26:45;99796.53;;;5.92;100.00
32320;BME280;19080;51.750;5.888;2024-02-26T05:29:11;99784.13;;;5.88;100.00
32320;BME280;19080;51.750;5.888;2024-02-26T05:31:38;99779.69;;;5.85;100.00
32320;BME280;19080;51.750;5.888;2024-02-26T05:34:05;99792.13;;;5.91;100.00
32320;BME280;19080;51.750;5.888;2024-02-26T05:36:31;99809.69;;;5.92;100.00
32320;BME280;19080;51.750;5.888;2024-02-26T05:39:01;99799.13;;;5.91;100.00
32320;BME280;19080;51.750;5.888;2024-02-26T05:41:27;99765.41;;;5.71;100.00
32320;BME280;19080;51.750;5.888;2024-02-26T05:43:54;99775.06;;;5.71;100.00
32320;BME280;19080;51.750;5.888;2024-02-26T05:46:22;99799.00;;;5.84;100.00
32320;BME280;19080;51.750;5.888;2024-02-26T05:48:51;99809.53;;;5.84;100.00
32320;BME280;19080;51.750;5.888;2024-02-26T05:51:19;99770.44;;;5.57;100.00
32320;BME280;19080;51.750;5.888;2024-02-26T05:53:46;99811.03;;;5.70;100.00
32320;BME280;19080;51.750;5.888;2024-02-26T05:56:22;99824.13;;;5.67;100.00
32320;BME280;19080;51.750;5.888;2024-02-26T05:58:48;99819.72;;;5.66;100.00
32320;BME280;19080;51.750;5.888;2024-02-26T06:01:16;99803.66;;;5.51;100.00
32320;BME280;19080;51.750;5.888;2024-02-26T06:03:44;99836.34;;;5.64;100.00
32320;BME280;19080;51.750;5.888;2024-02-26T06:06:12;99831.91;;;5.61;100.00
32320;BME280;19080;51.750;5.888;2024-02-26T06:08:39;99844.16;;;5.59;100.00
32320;BME280;19080;51.750;5.888;2024-02-26T06:11:06;99832.72;;;5.57;100.00
32320;BME280;19080;51.750;5.888;2024-02-26T06:13:34;99854.69;;;5.59;100.00
32320;BME280;19080;51.750;5.888;2024-02-26T06:16:01;99859.09;;;5.60;100.00
32320;BME280;19080;51.750;5.888;2024-02-26T06:18:30;99841.34;;;5.50;100.00
32320;BME280;19080;51.750;5.888;2024-02-26T06:20:57;99826.31;;;5.43;100.00
32320;BME280;19080;51.750;5.888;2024-02-26T06:23:24;99854.69;;;5.59;100.00
32320;BME280;19080;51.750;5.888;2024-02-26T06:25:52;99843.19;;;5.54;100.00
32320;BME280;19080;51.750;5.888;2024-02-26T06:28:20;99831.59;;;5.44;100.00
32320;BME280;19080;51.750;5.888;2024-02-26T06:30:47;99850.91;;;5.45;100.00
32320;BME280;19080;51.750;5.888;2024-02-26T06:33:16;99863.38;;;5.55;100.00
32320;BME280;19080;51.750;5.888;2024-02-26T06:35:43;99873.97;;;5.58;100.00
32320;BME280;19080;51.750;5.888;2024-02-26T06:38:10;99858.06;;;5.52;100.00
32320;BME280;19080;51.750;5.888;2024-02-26T06:40:39;99883.63;;;5.57;100.00
32320;BME280;19080;51.750;5.888;2024-02-26T06:43:06;99879.19;;;5.55;100.00
32320;BME280;19080;51.750;5.888;2024-02-26T06:45:33;99872.19;;;5.57;100.00
32320;BME280;19080;51.750;5.888;2024-02-26T06:48:00;99874.69;;;5.49;100.00
32320;BME280;19080;51.750;5.888;2024-02-26T06:50:27;99881.72;;;5.50;100.00
32320;BME280;19080;51.750;5.888;2024-02-26T06:52:53;99860.47;;;5.41;100.00
32320;BME280;19080;51.750;5.888;2024-02-26T06:55:20;99875.69;;;5.56;100.00
32320;BME280;19080;51.750;5.888;2024-02-26T06:57:47;99888.00;;;5.57;100.00
32320;BME280;19080;51.750;5.888;2024-02-26T07:00:14;99882.53;;;5.48;100.00
32320;BME280;19080;51.750;5.888;2024-02-26T07:02:43;99883.63;;;5.57;100.00
32320;BME280;19080;51.750;5.888;2024-02-26T07:05:10;99892.34;;;5.55;100.00
32320;BME280;19080;51.750;5.888;2024-02-26T07:07:36;99875.56;;;5.50;100.00
32320;BME280;19080;51.750;5.888;2024-02-26T07:10:03;99898.66;;;5.63;100.00
32320;BME280;19080;51.750;5.888;2024-02-26T07:12:32;99905.69;;;5.64;100.00
32320;BME280;19080;51.750;5.888;2024-02-26T07:14:59;99901.19;;;5.59;100.00
32320;BME280;19080;51.750;5.888;2024-02-26T07:17:26;99917.97;;;5.65;100.00
32320;BME280;19080;51.750;5.888;2024-02-26T07:19:53;99884.31;;;5.49;100.00
32320;BME280;19080;51.750;5.888;2024-02-26T07:22:20;99923.31;;;5.68;100.00
32320;BME280;19080;51.750;5.888;2024-02-26T07:24:46;99879.00;;;5.46;100.00
32320;BME280;19080;51.750;5.888;2024-02-26T07:27:13;99909.09;;;5.59;100.00
32320;BME280;19080;51.750;5.888;2024-02-26T07:29:40;99901.94;;;5.53;100.00
32320;BME280;19080;51.750;5.888;2024-02-26T07:32:06;99923.19;;;5.62;100.00
32320;BME280;19080;51.750;5.888;2024-02-26T07:34:34;99934.78;;;5.72;100.00
32320;BME280;19080;51.750;5.888;2024-02-26T07:37:02;99925.88;;;5.65;100.00
32320;BME280;19080;51.750;5.888;2024-02-26T07:39:29;99937.50;;;5.76;100.00
32320;BME280;19080;51.750;5.888;2024-02-26T07:41:57;99914.44;;;5.63;100.00
32320;BME280;19080;51.750;5.888;2024-02-26T07:44:24;99923.38;;;5.71;100.00
32320;BME280;19080;51.750;5.888;2024-02-26T07:46:52;99940.16;;;5.76;100.00
32320;BME280;19080;51.750;5.888;2024-02-26T07:49:18;99939.28;;;5.77;100.00
32320;BME280;19080;51.750;5.888;2024-02-26T07:51:45;99942.78;;;5.76;100.00
32320;BME280;19080;51.750;5.888;2024-02-26T07:54:12;99944.50;;;5.74;100.00
32320;BME280;19080;51.750;5.888;2024-02-26T07:56:39;99944.56;;;5.77;100.00
32320;BME280;19080;51.750;5.888;2024-02-26T07:59:06;99958.56;;;5.76;100.00
32320;BME280;19080;51.750;5.888;2024-02-26T08:01:33;99962.06;;;5.75;100.00
32320;BME280;19080;51.750;5.888;2024-02-26T08:04:01;99965.56;;;5.74;100.00
32320;BME280;19080;51.750;5.888;2024-02-26T08:06:28;99969.03;;;5.73;100.00
32320;BME280;19080;51.750;5.888;2024-02-26T08:08:54;99965.56;;;5.74;100.00
32320;BME280;19080;51.750;5.888;2024-02-26T08:11:21;99963.78;;;5.73;100.00
32320;BME280;19080;51.750;5.888;2024-02-26T08:13:48;99964.66;;;5.74;100.00
32320;BME280;19080;51.750;5.888;2024-02-26T08:16:14;99954.97;;;5.71;100.00
32320;BME280;19080;51.750;5.888;2024-02-26T08:18:41;99972.66;;;5.78;100.00
32320;BME280;19080;51.750;5.888;2024-02-26T08:21:08;99979.69;;;5.79;100.00
32320;BME280;19080;51.750;5.888;2024-02-26T08:23:36;99976.09;;;5.74;100.00
32320;BME280;19080;51.750;5.888;2024-02-26T08:26:03;99937.97;;;5.55;100.00
32320;BME280;19080;51.750;5.888;2024-02-26T08:28:33;99985.03;;;5.82;100.00
32320;BME280;19080;51.750;5.888;2024-02-26T08:31:00;99980.69;;;5.84;100.00
32320;BME280;19080;51.750;5.888;2024-02-26T08:33:26;99986.88;;;5.86;100.00
32320;BME280;19080;51.750;5.888;2024-02-26T08:35:53;99990.53;;;5.92;100.00
32320;BME280;19080;51.750;5.888;2024-02-26T08:38:20;99988.59;;;5.84;100.00
32320;BME280;19080;51.750;5.888;2024-02-26T08:40:47;100011.66;;;5.95;100.00
32320;BME280;19080;51.750;5.888;2024-02-26T08:43:14;99996.50;;;5.86;100.00
32320;BME280;19080;51.750;5.888;2024-02-26T08:45:40;100023.13;;;5.98;100.00
32320;BME280;19080;51.750;5.888;2024-02-26T08:48:08;100009.13;;;6.01;100.00
32320;BME280;19080;51.750;5.888;2024-02-26T08:50:35;100017.19;;;6.08;100.00
32320;BME280;19080;51.750;5.888;2024-02-26T08:53:02;100027.72;;;6.08;100.00
32320;BME280;19080;51.750;5.888;2024-02-26T08:55:33;100028.63;;;6.09;100.00
32320;BME280;19080;51.750;5.888;2024-02-26T08:58:00;100027.75;;;6.10;100.00
32320;BME280;19080;51.750;5.888;2024-02-26T09:00:26;100037.44;;;6.11;100.00
32320;BME280;19080;51.750;5.888;2024-02-26T09:02:53;100035.75;;;6.14;100.00
32320;BME280;19080;51.750;5.888;2024-02-26T09:05:20;100025.06;;;6.07;100.00
32320;BME280;19080;51.750;5.888;2024-02-26T09:07:46;100043.75;;;6.19;100.00
32320;BME280;19080;51.750;5.888;2024-02-26T09:10:13;100032.38;;;6.22;100.00
32320;BME280;19080;51.750;5.888;2024-02-26T09:12:40;100033.16;;;6.16;100.00
32320;BME280;19080;51.750;5.888;2024-02-26T09:15:07;100022.38;;;6.04;100.00
32320;BME280;19080;51.750;5.888;2024-02-26T09:17:34;100027.81;;;6.13;100.00
32320;BME280;19080;51.750;5.888;2024-02-26T09:20:02;100047.38;;;6.24;100.00
32320;BME280;19080;51.750;5.888;2024-02-26T09:22:29;100035.81;;;6.17;100.00
32320;BME280;19080;51.750;5.888;2024-02-26T09:24:55;100059.75;;;6.28;100.00
32320;BME280;19080;51.750;5.888;2024-02-26T09:27:22;100070.22;;;6.25;100.00
32320;BME280;19080;51.750;5.888;2024-02-26T09:29:50;100037.31;;;6.05;100.00
32320;BME280;19080;51.750;5.888;2024-02-26T09:32:16;100066.72;;;6.26;100.00
32320;BME280;19080;51.750;5.888;2024-02-26T09:34:44;100070.22;;;6.25;100.00
32320;BME280;19080;51.750;5.888;2024-02-26T09:37:10;100078.13;;;6.25;100.00
32320;BME280;19080;51.750;5.888;2024-02-26T09:39:46;100064.84;;;6.19;100.00
32320;BME280;19080;51.750;5.888;2024-02-26T09:42:13;100068.38;;;6.21;100.00
32320;BME280;19080;51.750;5.888;2024-02-26T09:44:40;100061.28;;;6.17;100.00
32320;BME280;19080;51.750;5.888;2024-02-26T09:47:11;100083.50;;;6.30;100.00
32320;BME280;19080;51.750;5.888;2024-02-26T09:49:39;100078.09;;;6.24;100.00
32320;BME280;19080;51.750;5.888;2024-02-26T09:52:08;100080.75;;;6.25;100.00
32320;BME280;19080;51.750;5.888;2024-02-26T09:54:35;100093.19;;;6.32;100.00
32320;BME280;19080;51.750;5.888;2024-02-26T09:57:03;100092.38;;;6.35;100.00
32320;BME280;19080;51.750;5.888;2024-02-26T09:59:39;100109.09;;;6.35;100.00
32320;BME280;19080;51.750;5.888;2024-02-26T10:02:14;100094.97;;;6.33;100.00
32320;BME280;19080;51.750;5.888;2024-02-26T10:04:41;100096.75;;;6.34;100.00
32320;BME280;19080;51.750;5.888;2024-02-26T10:07:13;100110.97;;;6.42;100.00
32320;BME280;19080;51.750;5.888;2024-02-26T10:09:40;100086.03;;;6.25;100.00
32320;BME280;19080;51.750;5.888;2024-02-26T10:12:08;100093.09;;;6.26;100.00
32320;BME280;19080;51.750;5.888;2024-02-26T10:14:37;100121.41;;;6.36;100.00
32320;BME280;19080;51.750;5.888;2024-02-26T10:17:07;100119.56;;;6.32;100.00
32320;BME280;19080;51.750;5.888;2024-02-26T10:19:35;100124.69;;;6.26;100.00
32320;BME280;19080;51.750;5.888;2024-02-26T10:22:04;100124.91;;;6.35;100.00
32320;BME280;19080;51.750;5.888;2024-02-26T10:24:31;100138.88;;;6.31;100.00
32320;BME280;19080;51.750;5.888;2024-02-26T10:26:58;100139.00;;;6.37;100.00
32320;BME280;19080;51.750;5.888;2024-02-26T10:29:25;100130.22;;;6.38;100.00
32320;BME280;19080;51.750;5.888;2024-02-26T10:31:52;100144.38;;;6.43;100.00
32320;BME280;19080;51.750;5.888;2024-02-26T10:34:20;100141.59;;;6.36;100.00
32320;BME280;19080;51.750;5.888;2024-02-26T10:36:49;100149.53;;;6.37;100.00
32320;BME280;19080;51.750;5.888;2024-02-26T10:39:20;100167.13;;;6.38;100.00
32320;BME280;19080;51.750;5.888;2024-02-26T10:41:49;100150.16;;;6.26;100.00
32320;BME280;19080;51.750;5.888;2024-02-26T10:44:18;100170.63;;;6.37;100.00
32320;BME280;19080;51.750;5.888;2024-02-26T10:46:48;100143.94;;;6.22;100.00
32320;BME280;19080;51.750;5.888;2024-02-26T10:49:16;100177.66;;;6.38;100.00
32320;BME280;19080;51.750;5.888;2024-02-26T10:51:49;100173.34;;;6.42;100.00
32320;BME280;19080;51.750;5.888;2024-02-26T10:54:18;100200.84;;;6.55;100.00
32320;BME280;19080;51.750;5.888;2024-02-26T10:56:46;100193.75;;;6.50;100.00
32320;BME280;19080;51.750;5.888;2024-02-26T10:59:14;100198.16;;;6.51;100.00
32320;BME280;19080;51.750;5.888;2024-02-26T11:01:42;100191.97;;;6.49;100.00
32320;BME280;19080;51.750;5.888;2024-02-26T11:04:15;100174.16;;;6.38;100.00
32320;BME280;19080;51.750;5.888;2024-02-26T11:06:43;100190.00;;;6.39;100.00
32320;BME280;19080;51.750;5.888;2024-02-26T11:09:12;100194.38;;;6.39;100.00
32320;BME280;19080;51.750;5.888;2024-02-26T11:11:40;100208.47;;;6.41;100.00
32320;BME280;19080;51.750;5.888;2024-02-26T11:14:09;100218.13;;;6.40;100.00
32320;BME280;19080;51.750;5.888;2024-02-26T11:16:37;100216.38;;;6.41;100.00
32320;BME280;19080;51.750;5.888;2024-02-26T11:19:06;100222.53;;;6.41;100.00
32320;BME280;19080;51.750;5.888;2024-02-26T11:21:35;100215.50;;;6.40;100.00
32320;BME280;19080;51.750;5.888;2024-02-26T11:24:09;100216.28;;;6.36;100.00
32320;BME280;19080;51.750;5.888;2024-02-26T11:26:43;100225.03;;;6.35;100.00
32320;BME280;19080;51.750;5.888;2024-02-26T11:29:17;100211.88;;;6.35;100.00
32320;BME280;19080;51.750;5.888;2024-02-26T11:31:46;100203.88;;;6.32;100.00
32320;BME280;19080;51.750;5.888;2024-02-26T11:34:13;100223.34;;;6.37;100.00
32320;BME280;19080;51.750;5.888;2024-02-26T11:36:40;100229.53;;;6.39;100.00
32320;BME280;19080;51.750;5.888;2024-02-26T11:39:11;100230.44;;;6.41;100.00
32320;BME280;19080;51.750;5.888;2024-02-26T11:41:39;100222.44;;;6.37;100.00
32320;BME280;19080;51.750;5.888;2024-02-26T11:44:06;100230.44;;;6.41;100.00
32320;BME280;19080;51.750;5.888;2024-02-26T11:46:39;100237.63;;;6.48;100.00
32320;BME280;19080;51.750;5.888;2024-02-26T11:51:56;100223.47;;;6.43;100.00
32320;BME280;19080;51.750;5.888;2024-02-26T11:57:26;100226.88;;;6.39;100.00
32320;BME280;19080;51.750;5.888;2024-02-26T12:00:15;100241.88;;;6.42;100.00
32320;BME280;19080;51.750;5.888;2024-02-26T12:02:50;100240.09;;;6.41;100.00
32320;BME280;19080;51.750;5.888;2024-02-26T12:05:25;100244.56;;;6.43;100.00
32320;BME280;19080;51.750;5.888;2024-02-26T12:08:07;100235.72;;;6.41;100.00
32320;BME280;19080;51.750;5.888;2024-02-26T12:10:36;100254.31;;;6.47;100.00
32320;BME280;19080;51.750;5.888;2024-02-26T12:13:09;100261.22;;;6.42;100.00
32320;BME280;19080;51.750;5.888;2024-02-26T12:15:44;100259.28;;;6.34;100.00
32320;BME280;19080;51.750;5.888;2024-02-26T12:18:18;100252.97;;;6.27;100.00
32320;BME280;19080;51.750;5.888;2024-02-26T12:20:45;100263.59;;;6.30;100.00
32320;BME280;19080;51.750;5.888;2024-02-26T12:23:16;100269.72;;;6.29;100.00
32320;BME280;19080;51.750;5.888;2024-02-26T12:25:46;100275.84;;;6.28;100.00
32320;BME280;19080;51.750;5.888;2024-02-26T12:28:15;100283.78;;;6.30;100.00
32320;BME280;19080;51.750;5.888;2024-02-26T12:30:41;100282.81;;;6.26;100.00
32320;BME280;19080;51.750;5.888;2024-02-26T12:33:08;100279.44;;;6.32;100.00
32320;BME280;19080;51.750;5.888;2024-02-26T12:35:36;100281.19;;;6.31;100.00
32320;BME280;19080;51.750;5.888;2024-02-26T12:38:03;100286.53;;;6.34;100.00
32320;BME280;19080;51.750;5.888;2024-02-26T12:40:31;100275.81;;;6.27;100.00
32320;BME280;19080;51.750;5.888;2024-02-26T12:42:57;100284.66;;;6.30;100.00
32320;BME280;19080;51.750;5.888;2024-02-26T12:45:25;100297.06;;;6.34;100.00
32320;BME280;19080;51.750;5.888;2024-02-26T12:47:52;100301.31;;;6.28;100.00
32320;BME280;19080;51.750;5.888;2024-02-26T12:50:19;100301.34;;;6.29;100.00
32320;BME280;19080;51.750;5.888;2024-02-26T12:52:47;100305.81;;;6.33;100.00
32320;BME280;19080;51.750;5.888;2024-02-26T12:55:17;100296.81;;;6.24;100.00
32320;BME280;19080;51.750;5.888;2024-02-26T12:57:45;100317.25;;;6.34;100.00
32320;BME280;19080;51.750;5.888;2024-02-26T13:00:16;100310.25;;;6.34;100.00
32320;BME280;19080;51.750;5.888;2024-02-26T13:02:44;100316.44;;;6.36;100.00
32320;BME280;19080;51.750;5.888;2024-02-26T13:05:13;100328.75;;;6.37;100.00